createdAt,value
2023-03-11T00:00:38.479Z,0.95
2023-03-11T00:03:07.410Z,1.70
2023-03-11T00:05:37.887Z,1.40
2023-03-11T00:08:06.576Z,1.23
2023-03-11T00:10:37.141Z,1.60
2023-03-11T00:13:05.573Z,2.03
2023-03-11T00:15:33.842Z,1.27
2023-03-11T00:18:01.402Z,1.52
2023-03-11T00:20:34.613Z,1.30
2023-03-11T00:23:02.757Z,1.07
2023-03-11T00:25:35.359Z,1.58
2023-03-11T00:28:03.019Z,1.17
2023-03-11T00:30:30.533Z,0.90
2023-03-11T00:32:59.448Z,1.05
2023-03-11T00:35:29.677Z,1.20
2023-03-11T00:38:00.006Z,1.35
2023-03-11T00:40:29.967Z,1.10
2023-03-11T00:42:57.958Z,1.45
2023-03-11T00:45:25.983Z,1.52
2023-03-11T00:47:53.772Z,1.27
2023-03-11T00:50:26.055Z,1.17
2023-03-11T00:52:54.601Z,1.10
2023-03-11T00:55:24.710Z,1.30
2023-03-11T00:57:57.684Z,1.33
2023-03-11T01:00:29.584Z,1.00
2023-03-11T01:02:58.721Z,1.08
2023-03-11T01:05:29.684Z,0.90
2023-03-11T01:07:56.933Z,0.98
2023-03-11T01:10:24.846Z,1.00
2023-03-11T01:12:52.061Z,1.30
2023-03-11T01:15:23.013Z,0.85
2023-03-11T01:17:50.234Z,0.90
2023-03-11T01:20:17.730Z,0.73
2023-03-11T01:22:45.644Z,1.00
2023-03-11T01:25:17.148Z,0.90
2023-03-11T01:27:44.705Z,0.90
2023-03-11T01:30:16.795Z,0.80
2023-03-11T01:32:44.988Z,1.00
2023-03-11T01:35:15.859Z,1.00
2023-03-11T01:37:43.769Z,1.50
2023-03-11T01:40:17.753Z,0.90
2023-03-11T01:42:44.997Z,1.05
2023-03-11T01:45:31.124Z,1.40
2023-03-11T01:47:58.416Z,1.10
2023-03-11T01:50:28.351Z,1.10
2023-03-11T01:52:56.083Z,1.08
2023-03-11T01:55:23.475Z,1.25
2023-03-11T01:57:52.449Z,0.80
2023-03-11T02:00:20.074Z,1.00
2023-03-11T02:02:55.606Z,0.83
2023-03-11T02:05:24.616Z,1.17
2023-03-11T02:07:54.899Z,0.80
2023-03-11T02:10:25.491Z,1.10
2023-03-11T02:12:54.558Z,0.80
2023-03-11T02:15:28.485Z,1.00
2023-03-11T02:17:58.709Z,1.02
2023-03-11T02:21:13.620Z,0.95
2023-03-11T02:24:04.676Z,0.95
2023-03-11T02:26:53.373Z,0.88
2023-03-11T02:29:22.886Z,0.90
2023-03-11T02:31:50.785Z,1.00
2023-03-11T02:34:25.164Z,0.85
2023-03-11T02:36:52.763Z,1.15
2023-03-11T02:39:32.316Z,0.98
2023-03-11T02:42:02.291Z,0.77
2023-03-11T02:44:29.584Z,1.00
2023-03-11T02:46:57.054Z,1.10
2023-03-11T02:49:25.083Z,1.20
2023-03-11T02:51:52.389Z,0.90
2023-03-11T02:54:19.607Z,1.53
2023-03-11T02:56:46.866Z,1.30
2023-03-11T02:59:14.041Z,1.27
2023-03-11T03:01:41.550Z,1.13
2023-03-11T03:04:08.900Z,1.02
2023-03-11T03:06:36.200Z,1.00
2023-03-11T03:09:04.148Z,0.85
2023-03-11T03:11:31.382Z,1.00
2023-03-11T03:13:59.002Z,1.00
2023-03-11T03:16:26.421Z,0.80
2023-03-11T03:18:54.529Z,1.10
2023-03-11T03:21:21.733Z,0.75
2023-03-11T03:23:49.227Z,1.45
2023-03-11T03:26:16.646Z,1.05
2023-03-11T03:28:47.676Z,1.20
2023-03-11T03:31:15.111Z,1.00
2023-03-11T03:33:43.663Z,0.80
2023-03-11T03:36:13.763Z,0.90
2023-03-11T03:38:44.125Z,1.00
2023-03-11T03:41:15.616Z,0.95
2023-03-11T03:43:43.039Z,0.90
2023-03-11T03:46:10.634Z,0.90
2023-03-11T03:48:42.626Z,0.90
2023-03-11T03:51:13.574Z,0.82
2023-03-11T03:53:56.432Z,0.73
2023-03-11T03:56:25.126Z,0.70
2023-03-11T03:58:53.717Z,1.05
2023-03-11T04:01:22.242Z,1.00
2023-03-11T04:03:49.573Z,1.00
2023-03-11T04:06:20.840Z,1.00
2023-03-11T04:08:53.962Z,1.00
2023-03-11T04:11:24.388Z,1.40
2023-03-11T04:13:51.847Z,1.15
2023-03-11T04:16:22.087Z,0.90
2023-03-11T04:18:50.766Z,0.80
2023-03-11T04:21:18.747Z,1.30
2023-03-11T04:23:47.233Z,0.80
2023-03-11T04:26:16.715Z,1.00
2023-03-11T04:28:43.916Z,0.93
2023-03-11T04:31:12.445Z,1.15
2023-03-11T04:33:39.988Z,0.70
2023-03-11T04:36:10.002Z,0.82
2023-03-11T04:38:38.652Z,0.90
2023-03-11T04:41:08.246Z,1.00
2023-03-11T04:43:38.772Z,0.90
2023-03-11T04:46:06.043Z,0.80
2023-03-11T04:48:33.510Z,1.20
2023-03-11T04:51:00.769Z,1.10
2023-03-11T04:53:30.334Z,1.10
2023-03-11T04:55:57.978Z,1.10
2023-03-11T04:58:25.356Z,1.20
2023-03-11T05:00:53.494Z,1.20
2023-03-11T05:03:21.674Z,0.85
2023-03-11T05:05:49.087Z,1.00
2023-03-11T05:08:18.943Z,0.93
2023-03-11T05:10:46.309Z,0.77
2023-03-11T05:13:13.489Z,1.10
2023-03-11T05:15:42.541Z,1.10
2023-03-11T05:18:09.742Z,0.93
2023-03-11T05:20:38.828Z,1.00
2023-03-11T05:23:06.569Z,1.10
2023-03-11T05:25:36.127Z,1.00
2023-03-11T05:28:04.587Z,0.88
2023-03-11T05:30:34.006Z,1.00
2023-03-11T05:33:01.272Z,1.52
2023-03-11T05:35:28.842Z,1.10
2023-03-11T05:37:56.350Z,1.10
2023-03-11T05:40:27.231Z,1.25
2023-03-11T05:42:54.391Z,1.20
2023-03-11T05:45:22.129Z,1.25
2023-03-11T05:47:52.504Z,1.53
2023-03-11T05:50:20.724Z,1.13
2023-03-11T05:52:49.681Z,1.58
2023-03-11T05:55:17.574Z,1.35
2023-03-11T05:57:46.262Z,1.20
2023-03-11T06:00:14.325Z,1.30
2023-03-11T06:02:43.014Z,1.45
2023-03-11T06:05:14.098Z,1.10
2023-03-11T06:07:43.145Z,1.33
2023-03-11T06:10:11.276Z,1.48
2023-03-11T06:12:39.269Z,1.00
2023-03-11T06:15:26.700Z,1.25
2023-03-11T06:17:54.530Z,1.58
2023-03-11T06:20:22.291Z,1.33
2023-03-11T06:22:49.967Z,1.40
2023-03-11T06:25:17.688Z,1.57
2023-03-11T06:27:51.361Z,2.22
2023-03-11T06:30:19.900Z,1.30
2023-03-11T06:32:58.331Z,1.27
2023-03-11T06:35:25.627Z,1.40
2023-03-11T06:37:52.826Z,1.20
2023-03-11T06:40:20.216Z,1.50
2023-03-11T06:42:47.752Z,1.42
2023-03-11T06:45:15.176Z,1.60
2023-03-11T06:47:43.683Z,1.63
2023-03-11T06:50:11.582Z,1.30
2023-03-11T06:52:38.849Z,1.40
2023-03-11T06:55:08.707Z,1.30
2023-03-11T06:57:36.895Z,2.40
2023-03-11T07:00:10.824Z,1.75
2023-03-11T07:02:38.162Z,1.70
2023-03-11T07:05:05.939Z,1.63
2023-03-11T07:07:33.502Z,1.58
2023-03-11T07:10:01.343Z,1.58
2023-03-11T07:12:28.586Z,1.90
2023-03-11T07:14:59.587Z,1.73
2023-03-11T07:17:28.195Z,1.60
2023-03-11T07:19:55.642Z,2.13
2023-03-11T07:22:22.818Z,1.65
2023-03-11T07:24:50.173Z,2.30
2023-03-11T07:27:17.742Z,1.63
2023-03-11T07:29:45.014Z,1.60
2023-03-11T07:32:12.201Z,2.00
2023-03-11T07:34:39.423Z,1.77
2023-03-11T07:37:06.714Z,1.75
2023-03-11T07:39:33.919Z,1.93
2023-03-11T07:42:01.094Z,1.80
2023-03-11T07:44:35.380Z,2.08
2023-03-11T07:47:04.110Z,1.67
2023-03-11T07:49:31.611Z,2.13
2023-03-11T07:51:58.781Z,1.80
2023-03-11T07:54:25.975Z,1.60
2023-03-11T07:56:53.203Z,1.70
2023-03-11T07:59:20.476Z,1.50
2023-03-11T08:01:47.738Z,1.70
2023-03-11T08:04:17.044Z,1.93
2023-03-11T08:06:47.004Z,1.60
2023-03-11T08:09:14.468Z,1.73
2023-03-11T08:11:41.863Z,1.52
2023-03-11T08:14:09.588Z,1.23
2023-03-11T08:16:36.792Z,1.47
2023-03-11T08:19:03.965Z,1.45
2023-03-11T08:21:32.176Z,1.85
2023-03-11T08:24:02.378Z,1.50
2023-03-11T08:26:30.483Z,1.52
2023-03-11T08:28:58.819Z,1.50
2023-03-11T08:31:29.436Z,1.70
2023-03-11T08:34:02.037Z,1.38
2023-03-11T08:36:29.915Z,1.60
2023-03-11T08:38:59.864Z,1.42
2023-03-11T08:41:27.974Z,1.80
2023-03-11T08:43:55.384Z,1.75
2023-03-11T08:46:28.279Z,1.83
2023-03-11T08:48:58.077Z,1.88
2023-03-11T08:51:27.036Z,1.90
2023-03-11T08:53:54.726Z,1.60
2023-03-11T08:56:22.124Z,1.77
2023-03-11T08:58:50.735Z,1.77
2023-03-11T09:01:18.135Z,1.65
2023-03-11T09:03:45.741Z,1.90
2023-03-11T09:06:15.644Z,1.30
2023-03-11T09:08:44.551Z,1.45
2023-03-11T09:11:13.520Z,1.63
2023-03-11T09:13:41.936Z,1.77
2023-03-11T09:16:17.566Z,1.50
2023-03-11T09:18:45.355Z,1.40
2023-03-11T09:21:13.237Z,1.40
2023-03-11T09:23:43.632Z,1.52
2023-03-11T09:26:11.852Z,2.00
2023-03-11T09:28:39.415Z,2.00
2023-03-11T09:31:06.720Z,1.60
2023-03-11T09:33:42.050Z,1.90
2023-03-11T09:36:13.808Z,1.70
2023-03-11T09:38:41.872Z,1.63
2023-03-11T09:41:18.350Z,1.98
2023-03-11T09:44:17.491Z,1.80
2023-03-11T09:47:06.800Z,1.95
2023-03-11T09:49:39.637Z,1.60
2023-03-11T09:52:15.773Z,2.00
2023-03-11T09:54:47.788Z,2.30
2023-03-11T09:57:24.117Z,1.93
2023-03-11T09:59:51.677Z,1.65
2023-03-11T10:02:22.292Z,2.15
2023-03-11T10:05:06.630Z,1.83
2023-03-11T10:07:39.409Z,1.67
2023-03-11T10:10:10.964Z,1.70
2023-03-11T10:13:33.540Z,1.85
2023-03-11T10:16:23.771Z,1.80
2023-03-11T10:19:21.320Z,1.80
2023-03-11T10:22:11.370Z,1.70
2023-03-11T10:25:09.838Z,1.50
2023-03-11T10:27:48.199Z,1.75
2023-03-11T10:30:34.232Z,1.80
2023-03-11T10:33:06.645Z,1.63
2023-03-11T10:35:40.449Z,1.80
2023-03-11T10:38:47.061Z,1.73
2023-03-11T10:41:20.903Z,1.60
2023-03-11T10:44:09.467Z,1.90
2023-03-11T10:46:36.614Z,1.83
2023-03-11T10:49:05.567Z,1.67
2023-03-11T10:51:35.589Z,1.80
2023-03-11T10:54:04.078Z,1.60
2023-03-11T10:56:37.018Z,1.70
2023-03-11T10:59:25.761Z,1.70
2023-03-11T11:02:01.792Z,1.88
2023-03-11T11:04:37.180Z,1.77
2023-03-11T11:07:29.263Z,1.73
2023-03-11T11:10:11.716Z,1.90
2023-03-11T11:13:00.820Z,2.30
2023-03-11T11:15:32.441Z,1.70
2023-03-11T11:18:03.053Z,1.67
2023-03-11T11:20:32.154Z,1.45
2023-03-11T11:23:02.174Z,1.73
2023-03-11T11:25:36.586Z,1.50
2023-03-11T11:28:17.412Z,2.28
2023-03-11T11:30:59.720Z,1.70
2023-03-11T11:33:29.217Z,1.85
2023-03-11T11:36:05.534Z,1.90
2023-03-11T11:38:33.165Z,1.38
2023-03-11T11:41:04.750Z,1.77
2023-03-11T11:43:59.084Z,1.67
2023-03-11T11:46:43.197Z,2.20
2023-03-11T11:49:20.779Z,1.88
2023-03-11T11:51:50.846Z,1.60
2023-03-11T11:54:30.051Z,1.73
2023-03-11T11:56:58.328Z,1.43
2023-03-11T11:59:26.947Z,1.52
2023-03-11T12:02:37.840Z,1.30
2023-03-11T12:05:20.325Z,1.80
2023-03-11T12:07:53.419Z,2.22
2023-03-11T12:10:27.010Z,1.77
2023-03-11T12:13:31.977Z,1.70
2023-03-11T12:16:11.161Z,1.70
2023-03-11T12:19:11.926Z,1.52
2023-03-11T12:21:57.152Z,1.40
2023-03-11T12:24:45.589Z,1.57
2023-03-11T12:27:40.759Z,1.65
2023-03-11T12:30:21.795Z,1.70
2023-03-11T12:33:06.403Z,1.92
2023-03-11T12:35:35.773Z,1.63
2023-03-11T12:38:03.221Z,1.47
2023-03-11T12:40:42.781Z,1.50
2023-03-11T12:43:48.207Z,2.17
2023-03-11T12:46:17.990Z,1.55
2023-03-11T12:48:50.835Z,1.73
2023-03-11T12:51:26.896Z,1.77
2023-03-11T12:53:55.539Z,1.70
2023-03-11T12:56:44.053Z,1.65
2023-03-11T12:59:48.542Z,1.23
2023-03-11T13:02:53.439Z,1.58
2023-03-11T13:05:48.082Z,1.50
2023-03-11T13:08:28.175Z,1.63
2023-03-11T13:10:56.535Z,1.42
2023-03-11T13:13:30.153Z,1.33
2023-03-11T13:15:58.829Z,1.60
2023-03-11T13:18:32.714Z,1.30
2023-03-11T13:21:04.618Z,1.38
2023-03-11T13:23:40.597Z,1.42
2023-03-11T13:26:10.675Z,1.35
2023-03-11T13:29:13.855Z,1.27
2023-03-11T13:31:59.847Z,1.23
2023-03-11T13:35:01.381Z,1.10
2023-03-11T13:37:50.980Z,1.42
2023-03-11T13:40:38.677Z,0.90
2023-03-11T13:43:17.019Z,1.27
2023-03-11T13:46:01.439Z,1.00
2023-03-11T13:48:32.843Z,1.00
2023-03-11T13:51:20.134Z,1.10
2023-03-11T13:54:02.041Z,1.10
2023-03-11T13:56:32.562Z,1.25
2023-03-11T13:59:22.281Z,1.20
2023-03-11T14:01:53.566Z,0.90
2023-03-11T14:04:26.776Z,1.10
2023-03-11T14:06:54.095Z,1.10
2023-03-11T14:09:27.201Z,1.20
2023-03-11T14:12:03.413Z,1.30
2023-03-11T14:14:48.955Z,1.10
2023-03-11T14:17:18.639Z,1.15
2023-03-11T14:20:15.114Z,1.10
2023-03-11T14:22:47.539Z,1.15
2023-03-11T14:25:19.488Z,1.43
2023-03-11T14:28:07.631Z,1.05
2023-03-11T14:30:34.989Z,1.08
2023-03-11T14:33:04.828Z,1.30
2023-03-11T14:35:33.774Z,1.17
2023-03-11T14:38:01.054Z,1.00
2023-03-11T14:40:29.884Z,1.20
2023-03-11T14:43:01.544Z,0.90
2023-03-11T14:45:40.439Z,1.20
2023-03-11T14:48:08.465Z,1.38
2023-03-11T14:50:36.126Z,1.17
2023-03-11T14:53:19.348Z,1.20
2023-03-11T14:56:08.350Z,0.90
2023-03-11T14:58:40.285Z,1.45
2023-03-11T15:01:17.172Z,1.40
2023-03-11T15:03:58.873Z,1.07
2023-03-11T15:06:29.373Z,1.40
2023-03-11T15:08:58.345Z,1.25
2023-03-11T15:11:28.341Z,1.20
2023-03-11T15:14:16.874Z,1.08
2023-03-11T15:16:44.081Z,1.10
2023-03-11T15:19:29.472Z,1.27
2023-03-11T15:22:21.306Z,1.20
2023-03-11T15:24:57.617Z,1.13
2023-03-11T15:27:36.678Z,1.30
2023-03-11T15:30:18.318Z,0.90
2023-03-11T15:32:45.926Z,1.55
2023-03-11T15:35:18.817Z,1.15
2023-03-11T15:37:47.603Z,1.20
2023-03-11T15:40:43.872Z,1.20
2023-03-11T15:43:14.648Z,1.30
2023-03-11T15:45:45.566Z,1.27
2023-03-11T15:48:13.926Z,1.17
2023-03-11T15:50:56.413Z,1.23
2023-03-11T15:53:25.717Z,1.13
2023-03-11T15:56:03.588Z,1.27
2023-03-11T15:58:33.743Z,1.13
2023-03-11T16:01:01.068Z,1.00
2023-03-11T16:03:30.242Z,1.27
2023-03-11T16:05:58.644Z,1.00
2023-03-11T16:08:25.849Z,1.10
2023-03-11T16:10:53.006Z,1.17
2023-03-11T16:13:20.135Z,1.20
2023-03-11T16:15:47.409Z,1.00
2023-03-11T16:18:14.675Z,1.00
2023-03-11T16:20:53.894Z,1.30
2023-03-11T16:23:44.847Z,1.20
2023-03-11T16:26:17.860Z,1.23
2023-03-11T16:28:45.074Z,1.20
2023-03-11T16:31:12.260Z,1.20
2023-03-11T16:33:39.408Z,0.93
2023-03-11T16:36:06.841Z,0.90
2023-03-11T16:38:48.985Z,1.55
2023-03-11T16:41:17.102Z,1.50
2023-03-11T16:43:44.419Z,1.58
2023-03-11T16:46:11.726Z,1.00
2023-03-11T16:48:39.036Z,1.00
2023-03-11T16:51:06.772Z,0.80
2023-03-11T16:53:33.974Z,0.80
2023-03-11T16:56:01.195Z,1.17
2023-03-11T16:58:28.324Z,1.00
2023-03-11T17:00:55.520Z,0.90
2023-03-11T17:03:22.749Z,0.80
2023-03-11T17:05:50.237Z,1.00
2023-03-11T17:08:18.350Z,1.30
2023-03-11T17:10:46.468Z,1.00
2023-03-11T17:13:16.464Z,1.10
2023-03-11T17:15:45.677Z,0.90
2023-03-11T17:18:13.651Z,1.08
2023-03-11T17:20:43.444Z,1.33
2023-03-11T17:23:10.772Z,1.00
2023-03-11T17:25:41.272Z,0.85
2023-03-11T17:28:09.051Z,1.42
2023-03-11T17:30:37.691Z,1.77
2023-03-11T17:33:05.140Z,1.50
2023-03-11T17:35:32.447Z,1.33
2023-03-11T17:37:59.695Z,0.90
2023-03-11T17:40:29.140Z,1.23
2023-03-11T17:42:59.805Z,1.25
2023-03-11T17:45:27.062Z,1.35
2023-03-11T17:47:54.306Z,1.10
2023-03-11T17:50:21.744Z,1.10
2023-03-11T17:52:48.968Z,1.30
2023-03-11T17:55:16.221Z,1.42
2023-03-11T17:57:45.778Z,1.20
2023-03-11T18:00:14.730Z,1.30
2023-03-11T18:02:42.390Z,1.25
2023-03-11T18:05:09.738Z,2.10
2023-03-11T18:07:40.865Z,1.35
2023-03-11T18:10:09.046Z,1.50
2023-03-11T18:12:36.420Z,1.50
2023-03-11T18:15:06.168Z,1.42
2023-03-11T18:17:35.036Z,1.45
2023-03-11T18:20:02.595Z,1.38
2023-03-11T18:22:29.736Z,1.50
2023-03-11T18:24:57.730Z,1.40
2023-03-11T18:27:24.961Z,1.85
2023-03-11T18:29:52.187Z,1.83
2023-03-11T18:32:20.718Z,1.50
2023-03-11T18:34:51.275Z,1.48
2023-03-11T18:37:18.680Z,1.43
2023-03-11T18:39:45.861Z,1.45
2023-03-11T18:42:14.043Z,1.80
2023-03-11T18:44:42.067Z,1.38
2023-03-11T18:47:09.418Z,1.77
2023-03-11T18:49:36.627Z,1.77
2023-03-11T18:52:03.942Z,1.80
2023-03-11T18:54:31.176Z,1.65
2023-03-11T18:56:58.359Z,1.73
2023-03-11T18:59:27.441Z,1.30
2023-03-11T19:01:54.798Z,1.60
2023-03-11T19:04:22.368Z,1.58
2023-03-11T19:06:50.179Z,1.60
2023-03-11T19:09:18.387Z,1.85
2023-03-11T19:11:45.888Z,1.77
2023-03-11T19:14:13.211Z,1.70
2023-03-11T19:16:40.513Z,1.80
2023-03-11T19:19:08.718Z,2.20
2023-03-11T19:21:36.877Z,2.60
2023-03-11T19:24:04.198Z,2.53
2023-03-11T19:26:44.404Z,6.87
2023-03-11T19:29:14.103Z,7.75
2023-03-11T19:31:43.394Z,9.23
2023-03-11T19:34:10.697Z,9.95
2023-03-11T19:36:38.995Z,7.75
2023-03-11T19:39:06.492Z,5.07
2023-03-11T19:41:33.773Z,5.40
2023-03-11T19:44:01.354Z,6.68
2023-03-11T19:46:29.630Z,5.55
2023-03-11T19:48:56.944Z,4.82
2023-03-11T19:51:25.420Z,4.73
2023-03-11T19:53:55.607Z,4.88
2023-03-11T19:56:25.721Z,5.18
2023-03-11T19:58:53.200Z,5.72
2023-03-11T20:01:21.045Z,5.05
2023-03-11T20:03:48.253Z,4.97
2023-03-11T20:06:18.499Z,4.28
2023-03-11T20:08:45.787Z,4.65
2023-03-11T20:11:13.292Z,7.93
2023-03-11T20:13:43.650Z,8.27
2023-03-11T20:16:13.857Z,6.40
2023-03-11T20:18:41.451Z,6.15
2023-03-11T20:21:11.710Z,7.95
2023-03-11T20:23:40.018Z,8.13
2023-03-11T20:26:12.545Z,6.72
2023-03-11T20:28:39.927Z,4.57
2023-03-11T20:31:27.779Z,4.18
2023-03-11T20:33:55.535Z,4.80
2023-03-11T20:36:27.102Z,4.00
2023-03-11T20:38:55.349Z,4.22
2023-03-11T20:41:23.968Z,4.77
2023-03-11T20:43:56.769Z,5.55
2023-03-11T20:46:24.416Z,5.15
2023-03-11T20:48:51.711Z,6.20
2023-03-11T20:51:20.458Z,5.00
2023-03-11T20:53:48.089Z,3.50
2023-03-11T20:56:18.544Z,4.40
2023-03-11T20:58:48.510Z,4.70
2023-03-11T21:01:22.233Z,4.60
2023-03-11T21:03:52.281Z,4.43
2023-03-11T21:06:25.773Z,5.17
2023-03-11T21:08:55.074Z,5.93
2023-03-11T21:11:24.045Z,3.83
2023-03-11T21:13:51.800Z,4.60
2023-03-11T21:16:19.107Z,4.50
2023-03-11T21:18:49.189Z,5.30
2023-03-11T21:21:17.459Z,5.03
2023-03-11T21:23:45.799Z,5.30
2023-03-11T21:26:15.408Z,4.80
2023-03-11T21:28:46.357Z,4.68
2023-03-11T21:31:19.890Z,4.83
2023-03-11T21:33:48.350Z,5.03
2023-03-11T21:36:16.498Z,5.03
2023-03-11T21:38:43.984Z,5.32
2023-03-11T21:41:15.979Z,6.40
2023-03-11T21:43:43.645Z,5.83
2023-03-11T21:46:13.726Z,5.30
2023-03-11T21:48:41.608Z,5.57
2023-03-11T21:51:08.826Z,5.60
2023-03-11T21:53:36.499Z,5.80
2023-03-11T21:56:04.443Z,5.50
2023-03-11T21:58:32.999Z,5.72
2023-03-11T22:01:00.538Z,5.00
2023-03-11T22:03:28.500Z,5.32
2023-03-11T22:05:59.986Z,4.70
2023-03-11T22:08:27.808Z,5.03
2023-03-11T22:10:55.666Z,4.60
2023-03-11T22:13:24.013Z,4.85
2023-03-11T22:15:51.662Z,5.00
2023-03-11T22:18:19.279Z,4.65
2023-03-11T22:20:46.492Z,4.73
2023-03-11T22:23:13.627Z,5.03
2023-03-11T22:25:40.798Z,3.92
2023-03-11T22:28:12.071Z,4.40
2023-03-11T22:30:39.310Z,4.80
2023-03-11T22:33:07.046Z,3.90
2023-03-11T22:35:34.583Z,4.43
2023-03-11T22:38:02.131Z,3.55
2023-03-11T22:40:29.341Z,4.22
2023-03-11T22:42:56.668Z,3.70
2023-03-11T22:45:23.885Z,4.07
2023-03-11T22:47:53.061Z,4.20
2023-03-11T22:50:20.993Z,4.05
2023-03-11T22:52:48.255Z,4.40
2023-03-11T22:55:15.582Z,4.20
2023-03-11T22:57:42.734Z,4.10
2023-03-11T23:00:17.478Z,3.88
2023-03-11T23:02:46.077Z,3.95
2023-03-11T23:05:14.920Z,3.20
2023-03-11T23:07:42.334Z,4.22
2023-03-11T23:10:12.209Z,3.67
2023-03-11T23:12:40.204Z,4.18
2023-03-11T23:15:11.479Z,4.53
2023-03-11T23:17:39.151Z,3.88
2023-03-11T23:20:09.866Z,4.65
2023-03-11T23:22:38.739Z,3.80
2023-03-11T23:25:10.322Z,4.30
2023-03-11T23:27:37.487Z,4.57
2023-03-11T23:30:05.676Z,4.00
2023-03-11T23:32:32.999Z,4.22
2023-03-11T23:35:00.207Z,3.97
2023-03-11T23:37:27.417Z,4.18
2023-03-11T23:39:54.589Z,3.47
2023-03-11T23:42:25.953Z,3.65
2023-03-11T23:44:54.068Z,3.83
2023-03-11T23:47:21.285Z,3.77
2023-03-11T23:49:48.528Z,3.63
2023-03-11T23:52:15.927Z,4.00
2023-03-11T23:54:43.165Z,4.03
2023-03-11T23:57:10.373Z,3.92
2023-03-11T23:59:37.585Z,3.60
